sensor_id;sensor_type;location;lat;lon;timestamp;P1;durP1;ratioP1;P2;durP2;ratioP2
355;SDS011;62514;48.112;11.566;2023-10-13T00:01:57;50.60;;;13.77;;
355;SDS011;62514;48.112;11.566;2023-10-13T00:04:27;59.93;;;17.43;;
355;SDS011;62514;48.112;11.566;2023-10-13T00:06:54;45.83;;;13.77;;
355;SDS011;62514;48.112;11.566;2023-10-13T00:09:23;67.97;;;19.77;;
355;SDS011;62514;48.112;11.566;2023-10-13T00:12:02;54.33;;;17.40;;
355;SDS011;62514;48.112;11.566;2023-10-13T00:14:38;72.13;;;20.63;;
355;SDS011;62514;48.112;11.566;2023-10-13T00:17:06;45.83;;;12.93;;
355;SDS011;62514;48.112;11.566;2023-10-13T00:19:34;53.77;;;13.60;;
355;SDS011;62514;48.112;11.566;2023-10-13T00:22:10;83.07;;;23.33;;
355;SDS011;62514;48.112;11.566;2023-10-13T00:24:40;58.10;;;15.30;;
355;SDS011;62514;48.112;11.566;2023-10-13T00:27:14;46.33;;;12.57;;
355;SDS011;62514;48.112;11.566;2023-10-13T00:29:53;102.70;;;25.37;;
355;SDS011;62514;48.112;11.566;2023-10-13T00:32:50;64.40;;;16.03;;
355;SDS011;62514;48.112;11.566;2023-10-13T00:35:21;50.33;;;16.07;;
355;SDS011;62514;48.112;11.566;2023-10-13T00:37:51;133.90;;;33.37;;
355;SDS011;62514;48.112;11.566;2023-10-13T00:40:19;45.77;;;12.30;;
355;SDS011;62514;48.112;11.566;2023-10-13T00:43:11;87.40;;;24.67;;
355;SDS011;62514;48.112;11.566;2023-10-13T00:45:55;58.97;;;17.13;;
355;SDS011;62514;48.112;11.566;2023-10-13T00:48:25;62.13;;;17.00;;
355;SDS011;62514;48.112;11.566;2023-10-13T00:51:06;55.87;;;14.73;;
355;SDS011;62514;48.112;11.566;2023-10-13T00:53:32;81.37;;;23.23;;
355;SDS011;62514;48.112;11.566;2023-10-13T00:56:02;40.67;;;12.73;;
355;SDS011;62514;48.112;11.566;2023-10-13T00:58:44;82.73;;;21.13;;
355;SDS011;62514;48.112;11.566;2023-10-13T01:01:16;65.57;;;16.03;;
355;SDS011;62514;48.112;11.566;2023-10-13T01:03:48;59.87;;;15.27;;
355;SDS011;62514;48.112;11.566;2023-10-13T01:06:18;64.30;;;16.80;;
355;SDS011;62514;48.112;11.566;2023-10-13T01:08:45;62.00;;;19.57;;
355;SDS011;62514;48.112;11.566;2023-10-13T01:11:18;53.83;;;15.67;;
355;SDS011;62514;48.112;11.566;2023-10-13T01:13:44;94.50;;;23.87;;
355;SDS011;62514;48.112;11.566;2023-10-13T01:16:12;58.40;;;17.30;;
355;SDS011;62514;48.112;11.566;2023-10-13T01:18:38;38.20;;;12.07;;
355;SDS011;62514;48.112;11.566;2023-10-13T01:21:13;63.40;;;17.33;;
355;SDS011;62514;48.112;11.566;2023-10-13T01:23:42;58.70;;;16.60;;
355;SDS011;62514;48.112;11.566;2023-10-13T01:26:13;55.43;;;16.60;;
355;SDS011;62514;48.112;11.566;2023-10-13T01:28:46;47.07;;;12.87;;
355;SDS011;62514;48.112;11.566;2023-10-13T01:31:13;85.87;;;24.97;;
355;SDS011;62514;48.112;11.566;2023-10-13T01:34:02;55.00;;;15.83;;
355;SDS011;62514;48.112;11.566;2023-10-13T01:36:27;121.57;;;32.13;;
355;SDS011;62514;48.112;11.566;2023-10-13T01:38:54;61.27;;;16.83;;
355;SDS011;62514;48.112;11.566;2023-10-13T01:41:22;77.53;;;21.63;;
355;SDS011;62514;48.112;11.566;2023-10-13T01:43:48;59.10;;;14.67;;
355;SDS011;62514;48.112;11.566;2023-10-13T01:46:14;62.87;;;16.80;;
355;SDS011;62514;48.112;11.566;2023-10-13T01:48:41;39.67;;;11.47;;
355;SDS011;62514;48.112;11.566;2023-10-13T01:51:08;81.33;;;23.10;;
355;SDS011;62514;48.112;11.566;2023-10-13T01:53:38;86.97;;;22.13;;
355;SDS011;62514;48.112;11.566;2023-10-13T01:56:05;66.70;;;18.77;;
355;SDS011;62514;48.112;11.566;2023-10-13T01:58:35;84.53;;;20.67;;
355;SDS011;62514;48.112;11.566;2023-10-13T02:01:02;69.77;;;19.53;;
355;SDS011;62514;48.112;11.566;2023-10-13T02:03:28;45.20;;;11.87;;
355;SDS011;62514;48.112;11.566;2023-10-13T02:05:55;63.00;;;16.40;;
355;SDS011;62514;48.112;11.566;2023-10-13T02:08:23;84.63;;;22.23;;
355;SDS011;62514;48.112;11.566;2023-10-13T02:10:52;101.50;;;25.30;;
355;SDS011;62514;48.112;11.566;2023-10-13T02:13:20;71.50;;;17.87;;
355;SDS011;62514;48.112;11.566;2023-10-13T02:15:49;98.20;;;24.53;;
355;SDS011;62514;48.112;11.566;2023-10-13T02:18:21;85.83;;;23.20;;
355;SDS011;62514;48.112;11.566;2023-10-13T02:20:52;97.53;;;24.53;;
355;SDS011;62514;48.112;11.566;2023-10-13T02:23:25;85.17;;;20.77;;
355;SDS011;62514;48.112;11.566;2023-10-13T02:25:54;68.83;;;21.00;;
355;SDS011;62514;48.112;11.566;2023-10-13T02:28:29;74.53;;;20.20;;
355;SDS011;62514;48.112;11.566;2023-10-13T02:31:01;87.70;;;21.80;;
355;SDS011;62514;48.112;11.566;2023-10-13T02:33:28;70.80;;;17.67;;
355;SDS011;62514;48.112;11.566;2023-10-13T02:36:01;115.60;;;31.27;;
355;SDS011;62514;48.112;11.566;2023-10-13T02:38:30;67.00;;;18.13;;
355;SDS011;62514;48.112;11.566;2023-10-13T02:41:03;100.87;;;27.17;;
355;SDS011;62514;48.112;11.566;2023-10-13T02:43:34;39.23;;;12.77;;
355;SDS011;62514;48.112;11.566;2023-10-13T02:46:01;100.63;;;28.23;;
355;SDS011;62514;48.112;11.566;2023-10-13T02:48:27;66.50;;;18.97;;
355;SDS011;62514;48.112;11.566;2023-10-13T02:51:07;58.33;;;16.23;;
355;SDS011;62514;48.112;11.566;2023-10-13T02:53:46;86.07;;;21.00;;
355;SDS011;62514;48.112;11.566;2023-10-13T02:56:15;139.07;;;34.07;;
355;SDS011;62514;48.112;11.566;2023-10-13T02:58:51;80.50;;;22.93;;
355;SDS011;62514;48.112;11.566;2023-10-13T03:01:30;101.73;;;27.07;;
355;SDS011;62514;48.112;11.566;2023-10-13T03:04:00;139.17;;;34.23;;
355;SDS011;62514;48.112;11.566;2023-10-13T03:06:27;213.80;;;55.30;;
355;SDS011;62514;48.112;11.566;2023-10-13T03:09:01;123.87;;;32.97;;
355;SDS011;62514;48.112;11.566;2023-10-13T03:11:49;216.23;;;58.00;;
355;SDS011;62514;48.112;11.566;2023-10-13T03:14:19;223.90;;;59.97;;
355;SDS011;62514;48.112;11.566;2023-10-13T03:16:59;213.27;;;55.00;;
355;SDS011;62514;48.112;11.566;2023-10-13T03:19:34;191.57;;;53.83;;
355;SDS011;62514;48.112;11.566;2023-10-13T03:22:05;193.20;;;48.90;;
355;SDS011;62514;48.112;11.566;2023-10-13T03:24:33;159.37;;;42.80;;
355;SDS011;62514;48.112;11.566;2023-10-13T03:26:59;239.27;;;64.67;;
355;SDS011;62514;48.112;11.566;2023-10-13T03:29:38;180.93;;;48.00;;
355;SDS011;62514;48.112;11.566;2023-10-13T03:32:08;162.57;;;42.00;;
355;SDS011;62514;48.112;11.566;2023-10-13T03:34:38;137.43;;;36.97;;
355;SDS011;62514;48.112;11.566;2023-10-13T03:37:24;158.23;;;40.60;;
355;SDS011;62514;48.112;11.566;2023-10-13T03:40:07;139.50;;;36.30;;
355;SDS011;62514;48.112;11.566;2023-10-13T03:42:58;390.30;;;110.90;;
355;SDS011;62514;48.112;11.566;2023-10-13T03:45:36;210.43;;;54.20;;
355;SDS011;62514;48.112;11.566;2023-10-13T03:48:09;201.23;;;54.03;;
355;SDS011;62514;48.112;11.566;2023-10-13T03:50:52;197.27;;;52.20;;
355;SDS011;62514;48.112;11.566;2023-10-13T03:53:39;227.70;;;59.87;;
355;SDS011;62514;48.112;11.566;2023-10-13T03:56:21;105.27;;;28.00;;
355;SDS011;62514;48.112;11.566;2023-10-13T03:58:52;107.13;;;29.93;;
355;SDS011;62514;48.112;11.566;2023-10-13T04:01:37;173.63;;;43.47;;
355;SDS011;62514;48.112;11.566;2023-10-13T04:04:09;196.43;;;50.30;;
355;SDS011;62514;48.112;11.566;2023-10-13T04:06:40;403.17;;;118.00;;
355;SDS011;62514;48.112;11.566;2023-10-13T04:09:18;391.00;;;114.20;;
355;SDS011;62514;48.112;11.566;2023-10-13T04:12:01;203.17;;;52.77;;
355;SDS011;62514;48.112;11.566;2023-10-13T04:14:38;192.40;;;53.10;;
355;SDS011;62514;48.112;11.566;2023-10-13T04:17:23;185.73;;;47.87;;
355;SDS011;62514;48.112;11.566;2023-10-13T04:19:53;218.47;;;57.70;;
355;SDS011;62514;48.112;11.566;2023-10-13T04:22:36;191.33;;;49.83;;
355;SDS011;62514;48.112;11.566;2023-10-13T04:25:12;268.10;;;71.07;;
355;SDS011;62514;48.112;11.566;2023-10-13T04:27:57;279.23;;;72.50;;
355;SDS011;62514;48.112;11.566;2023-10-13T04:30:59;184.17;;;48.40;;
355;SDS011;62514;48.112;11.566;2023-10-13T04:33:49;249.57;;;66.20;;
355;SDS011;62514;48.112;11.566;2023-10-13T04:36:21;176.93;;;47.43;;
355;SDS011;62514;48.112;11.566;2023-10-13T04:38:56;344.83;;;97.70;;
355;SDS011;62514;48.112;11.566;2023-10-13T04:41:30;377.27;;;110.17;;
355;SDS011;62514;48.112;11.566;2023-10-13T04:44:03;403.17;;;116.93;;
355;SDS011;62514;48.112;11.566;2023-10-13T04:46:47;406.80;;;118.70;;
355;SDS011;62514;48.112;11.566;2023-10-13T04:49:13;334.33;;;96.27;;
355;SDS011;62514;48.112;11.566;2023-10-13T04:51:56;375.60;;;105.33;;
355;SDS011;62514;48.112;11.566;2023-10-13T04:54:27;186.67;;;49.90;;
355;SDS011;62514;48.112;11.566;2023-10-13T04:57:13;205.77;;;53.93;;
355;SDS011;62514;48.112;11.566;2023-10-13T04:59:58;300.20;;;83.47;;
355;SDS011;62514;48.112;11.566;2023-10-13T05:02:37;336.77;;;93.90;;
355;SDS011;62514;48.112;11.566;2023-10-13T05:05:08;223.37;;;59.97;;
355;SDS011;62514;48.112;11.566;2023-10-13T05:07:43;352.63;;;96.67;;
355;SDS011;62514;48.112;11.566;2023-10-13T05:10:29;385.50;;;110.70;;
355;SDS011;62514;48.112;11.566;2023-10-13T05:13:13;376.97;;;104.90;;
355;SDS011;62514;48.112;11.566;2023-10-13T05:15:58;220.10;;;65.87;;
355;SDS011;62514;48.112;11.566;2023-10-13T05:18:42;390.03;;;112.07;;
355;SDS011;62514;48.112;11.566;2023-10-13T05:21:28;380.27;;;107.60;;
355;SDS011;62514;48.112;11.566;2023-10-13T05:24:13;384.47;;;110.10;;
355;SDS011;62514;48.112;11.566;2023-10-13T05:26:57;278.87;;;75.27;;
355;SDS011;62514;48.112;11.566;2023-10-13T05:29:42;317.10;;;84.93;;
355;SDS011;62514;48.112;11.566;2023-10-13T05:32:27;388.53;;;113.03;;
355;SDS011;62514;48.112;11.566;2023-10-13T05:35:11;386.00;;;111.27;;
355;SDS011;62514;48.112;11.566;2023-10-13T05:37:56;396.00;;;114.70;;
355;SDS011;62514;48.112;11.566;2023-10-13T05:40:51;285.33;;;80.87;;
355;SDS011;62514;48.112;11.566;2023-10-13T05:43:42;274.10;;;74.20;;
355;SDS011;62514;48.112;11.566;2023-10-13T05:46:26;325.63;;;93.17;;
355;SDS011;62514;48.112;11.566;2023-10-13T05:48:52;385.50;;;109.77;;
355;SDS011;62514;48.112;11.566;2023-10-13T05:51:27;371.67;;;104.60;;
355;SDS011;62514;48.112;11.566;2023-10-13T05:53:58;322.77;;;93.10;;
355;SDS011;62514;48.112;11.566;2023-10-13T05:56:40;400.77;;;118.97;;
355;SDS011;62514;48.112;11.566;2023-10-13T05:59:27;375.10;;;107.30;;
355;SDS011;62514;48.112;11.566;2023-10-13T06:02:14;379.10;;;109.80;;
355;SDS011;62514;48.112;11.566;2023-10-13T06:05:32;380.40;;;106.73;;
355;SDS011;62514;48.112;11.566;2023-10-13T06:08:10;391.33;;;112.13;;
355;SDS011;62514;48.112;11.566;2023-10-13T06:11:00;313.43;;;88.37;;
355;SDS011;62514;48.112;11.566;2023-10-13T06:13:45;401.70;;;117.93;;
355;SDS011;62514;48.112;11.566;2023-10-13T06:16:30;393.43;;;115.63;;
355;SDS011;62514;48.112;11.566;2023-10-13T06:19:14;381.93;;;109.53;;
355;SDS011;62514;48.112;11.566;2023-10-13T06:21:58;394.53;;;115.63;;
355;SDS011;62514;48.112;11.566;2023-10-13T06:24:43;340.97;;;101.57;;
355;SDS011;62514;48.112;11.566;2023-10-13T06:27:28;323.53;;;92.43;;
355;SDS011;62514;48.112;11.566;2023-10-13T06:30:12;391.30;;;113.80;;
355;SDS011;62514;48.112;11.566;2023-10-13T06:32:38;380.67;;;110.87;;
355;SDS011;62514;48.112;11.566;2023-10-13T06:35:05;402.93;;;121.50;;
355;SDS011;62514;48.112;11.566;2023-10-13T06:37:43;373.57;;;106.23;;
355;SDS011;62514;48.112;11.566;2023-10-13T06:40:09;382.93;;;111.53;;
355;SDS011;62514;48.112;11.566;2023-10-13T06:42:56;394.77;;;113.93;;
355;SDS011;62514;48.112;11.566;2023-10-13T06:45:37;349.03;;;103.73;;
355;SDS011;62514;48.112;11.566;2023-10-13T06:48:04;392.93;;;114.53;;
355;SDS011;62514;48.112;11.566;2023-10-13T06:50:30;328.17;;;94.20;;
355;SDS011;62514;48.112;11.566;2023-10-13T06:53:04;402.90;;;118.77;;
355;SDS011;62514;48.112;11.566;2023-10-13T06:55:30;396.50;;;116.10;;
355;SDS011;62514;48.112;11.566;2023-10-13T06:58:05;375.80;;;106.70;;
355;SDS011;62514;48.112;11.566;2023-10-13T07:00:32;308.03;;;85.07;;
355;SDS011;62514;48.112;11.566;2023-10-13T07:02:59;369.17;;;104.63;;
355;SDS011;62514;48.112;11.566;2023-10-13T07:05:34;410.27;;;119.93;;
355;SDS011;62514;48.112;11.566;2023-10-13T07:08:00;348.60;;;103.10;;
355;SDS011;62514;48.112;11.566;2023-10-13T07:10:26;415.20;;;125.00;;
355;SDS011;62514;48.112;11.566;2023-10-13T07:12:55;387.23;;;111.93;;
355;SDS011;62514;48.112;11.566;2023-10-13T07:15:25;411.90;;;118.83;;
355;SDS011;62514;48.112;11.566;2023-10-13T07:17:54;393.73;;;111.10;;
355;SDS011;62514;48.112;11.566;2023-10-13T07:20:24;409.50;;;119.30;;
355;SDS011;62514;48.112;11.566;2023-10-13T07:22:59;427.60;;;131.47;;
355;SDS011;62514;48.112;11.566;2023-10-13T07:25:33;333.90;;;95.30;;
355;SDS011;62514;48.112;11.566;2023-10-13T07:28:02;428.77;;;127.43;;
355;SDS011;62514;48.112;11.566;2023-10-13T07:30:34;378.63;;;116.23;;
355;SDS011;62514;48.112;11.566;2023-10-13T07:33:14;414.00;;;121.53;;
355;SDS011;62514;48.112;11.566;2023-10-13T07:35:44;422.20;;;124.80;;
355;SDS011;62514;48.112;11.566;2023-10-13T07:38:15;418.23;;;124.47;;
355;SDS011;62514;48.112;11.566;2023-10-13T07:40:41;409.00;;;118.80;;
355;SDS011;62514;48.112;11.566;2023-10-13T07:43:16;416.23;;;125.50;;
355;SDS011;62514;48.112;11.566;2023-10-13T07:45:46;418.20;;;123.40;;
355;SDS011;62514;48.112;11.566;2023-10-13T07:48:15;422.60;;;124.77;;
355;SDS011;62514;48.112;11.566;2023-10-13T07:50:45;411.03;;;119.60;;
355;SDS011;62514;48.112;11.566;2023-10-13T07:53:11;399.10;;;118.50;;
355;SDS011;62514;48.112;11.566;2023-10-13T07:55:49;426.60;;;126.70;;
355;SDS011;62514;48.112;11.566;2023-10-13T07:58:26;342.60;;;98.30;;
355;SDS011;62514;48.112;11.566;2023-10-13T08:00:51;427.77;;;133.47;;
355;SDS011;62514;48.112;11.566;2023-10-13T08:03:35;340.77;;;103.70;;
355;SDS011;62514;48.112;11.566;2023-10-13T08:06:14;337.17;;;103.67;;
355;SDS011;62514;48.112;11.566;2023-10-13T08:08:41;371.17;;;114.70;;
355;SDS011;62514;48.112;11.566;2023-10-13T08:11:14;344.00;;;100.30;;
355;SDS011;62514;48.112;11.566;2023-10-13T08:13:50;339.20;;;95.70;;
355;SDS011;62514;48.112;11.566;2023-10-13T08:16:21;341.40;;;98.00;;
355;SDS011;62514;48.112;11.566;2023-10-13T08:18:51;429.83;;;132.63;;
355;SDS011;62514;48.112;11.566;2023-10-13T08:21:20;346.67;;;102.20;;
355;SDS011;62514;48.112;11.566;2023-10-13T08:23:49;329.77;;;99.70;;
355;SDS011;62514;48.112;11.566;2023-10-13T08:26:19;339.47;;;102.17;;
355;SDS011;62514;48.112;11.566;2023-10-13T08:29:03;356.80;;;111.43;;
355;SDS011;62514;48.112;11.566;2023-10-13T08:31:48;332.20;;;99.00;;
355;SDS011;62514;48.112;11.566;2023-10-13T08:34:32;414.70;;;130.63;;
355;SDS011;62514;48.112;11.566;2023-10-13T08:37:08;419.10;;;133.17;;
355;SDS011;62514;48.112;11.566;2023-10-13T08:39:51;418.67;;;136.23;;
355;SDS011;62514;48.112;11.566;2023-10-13T08:42:33;423.77;;;135.33;;
355;SDS011;62514;48.112;11.566;2023-10-13T08:45:07;420.17;;;132.73;;
355;SDS011;62514;48.112;11.566;2023-10-13T08:48:19;414.27;;;127.03;;
355;SDS011;62514;48.112;11.566;2023-10-13T08:50:48;334.17;;;97.00;;
355;SDS011;62514;48.112;11.566;2023-10-13T08:53:17;438.10;;;139.00;;
355;SDS011;62514;48.112;11.566;2023-10-13T08:58:39;430.60;;;135.03;;
355;SDS011;62514;48.112;11.566;2023-10-13T09:01:25;432.77;;;129.80;;
355;SDS011;62514;48.112;11.566;2023-10-13T09:04:10;434.53;;;134.30;;
355;SDS011;62514;48.112;11.566;2023-10-13T09:06:47;440.90;;;140.97;;
355;SDS011;62514;48.112;11.566;2023-10-13T09:09:23;468.30;;;154.27;;
355;SDS011;62514;48.112;11.566;2023-10-13T09:11:55;424.70;;;124.20;;
355;SDS011;62514;48.112;11.566;2023-10-13T09:14:34;436.83;;;137.03;;
355;SDS011;62514;48.112;11.566;2023-10-13T09:17:04;430.33;;;133.73;;
355;SDS011;62514;48.112;11.566;2023-10-13T09:19:57;432.80;;;134.93;;
355;SDS011;62514;48.112;11.566;2023-10-13T09:22:24;391.57;;;123.77;;
355;SDS011;62514;48.112;11.566;2023-10-13T09:24:58;429.27;;;125.03;;
355;SDS011;62514;48.112;11.566;2023-10-13T09:27:26;420.13;;;122.00;;
355;SDS011;62514;48.112;11.566;2023-10-13T09:29:59;425.57;;;123.93;;
355;SDS011;62514;48.112;11.566;2023-10-13T09:32:33;427.73;;;124.77;;
355;SDS011;62514;48.112;11.566;2023-10-13T09:35:11;428.47;;;124.30;;
355;SDS011;62514;48.112;11.566;2023-10-13T09:37:48;433.77;;;128.07;;
355;SDS011;62514;48.112;11.566;2023-10-13T09:40:16;449.83;;;138.50;;
355;SDS011;62514;48.112;11.566;2023-10-13T09:43:14;424.50;;;125.17;;
355;SDS011;62514;48.112;11.566;2023-10-13T09:45:43;431.73;;;129.07;;
355;SDS011;62514;48.112;11.566;2023-10-13T09:48:33;422.83;;;125.27;;
355;SDS011;62514;48.112;11.566;2023-10-13T09:51:04;431.00;;;128.87;;
355;SDS011;62514;48.112;11.566;2023-10-13T09:53:33;416.63;;;120.67;;
355;SDS011;62514;48.112;11.566;2023-10-13T09:56:15;441.40;;;136.10;;
355;SDS011;62514;48.112;11.566;2023-10-13T09:58:51;429.33;;;127.70;;
355;SDS011;62514;48.112;11.566;2023-10-13T10:01:27;425.30;;;126.37;;
355;SDS011;62514;48.112;11.566;2023-10-13T10:04:07;441.47;;;134.67;;
355;SDS011;62514;48.112;11.566;2023-10-13T10:06:58;456.63;;;151.93;;
355;SDS011;62514;48.112;11.566;2023-10-13T10:17:21;446.07;;;135.70;;
355;SDS011;62514;48.112;11.566;2023-10-13T10:19:51;431.40;;;129.70;;
355;SDS011;62514;48.112;11.566;2023-10-13T10:22:40;432.83;;;130.93;;
355;SDS011;62514;48.112;11.566;2023-10-13T10:25:13;423.93;;;122.93;;
355;SDS011;62514;48.112;11.566;2023-10-13T10:27:54;432.17;;;129.00;;
355;SDS011;62514;48.112;11.566;2023-10-13T10:30:27;433.20;;;129.33;;
355;SDS011;62514;48.112;11.566;2023-10-13T10:32:57;448.20;;;138.50;;
355;SDS011;62514;48.112;11.566;2023-10-13T10:35:24;432.10;;;127.97;;
355;SDS011;62514;48.112;11.566;2023-10-13T10:38:09;425.33;;;128.77;;
355;SDS011;62514;48.112;11.566;2023-10-13T10:43:18;432.07;;;129.17;;
355;SDS011;62514;48.112;11.566;2023-10-13T10:45:47;437.90;;;132.57;;
355;SDS011;62514;48.112;11.566;2023-10-13T10:48:16;438.70;;;132.77;;
355;SDS011;62514;48.112;11.566;2023-10-13T10:50:52;437.77;;;134.37;;
355;SDS011;62514;48.112;11.566;2023-10-13T10:53:21;426.93;;;126.17;;
355;SDS011;62514;48.112;11.566;2023-10-13T10:55:47;446.57;;;140.07;;
355;SDS011;62514;48.112;11.566;2023-10-13T10:58:13;443.27;;;137.47;;
355;SDS011;62514;48.112;11.566;2023-10-13T11:01:06;429.43;;;131.87;;
355;SDS011;62514;48.112;11.566;2023-10-13T11:04:01;431.07;;;133.00;;
355;SDS011;62514;48.112;11.566;2023-10-13T11:09:25;425.87;;;129.17;;
355;SDS011;62514;48.112;11.566;2023-10-13T11:11:56;435.20;;;136.53;;
355;SDS011;62514;48.112;11.566;2023-10-13T11:15:02;418.50;;;126.80;;
355;SDS011;62514;48.112;11.566;2023-10-13T11:17:34;423.87;;;129.30;;
355;SDS011;62514;48.112;11.566;2023-10-13T11:20:14;423.80;;;130.60;;
355;SDS011;62514;48.112;11.566;2023-10-13T11:22:49;425.10;;;132.40;;
355;SDS011;62514;48.112;11.566;2023-10-13T11:25:21;425.17;;;132.73;;
355;SDS011;62514;48.112;11.566;2023-10-13T11:27:55;421.30;;;130.27;;
355;SDS011;62514;48.112;11.566;2023-10-13T11:30:23;430.70;;;134.10;;
355;SDS011;62514;48.112;11.566;2023-10-13T11:33:00;427.67;;;133.03;;
355;SDS011;62514;48.112;11.566;2023-10-13T11:35:31;429.63;;;133.77;;
355;SDS011;62514;48.112;11.566;2023-10-13T11:38:22;418.93;;;128.43;;
355;SDS011;62514;48.112;11.566;2023-10-13T11:41:13;425.77;;;131.67;;
355;SDS011;62514;48.112;11.566;2023-10-13T11:46:18;430.27;;;135.63;;
355;SDS011;62514;48.112;11.566;2023-10-13T11:49:03;426.03;;;134.77;;
355;SDS011;62514;48.112;11.566;2023-10-13T11:51:38;423.67;;;133.07;;
355;SDS011;62514;48.112;11.566;2023-10-13T11:54:04;439.97;;;145.77;;
355;SDS011;62514;48.112;11.566;2023-10-13T11:56:29;425.13;;;133.13;;
355;SDS011;62514;48.112;11.566;2023-10-13T11:58:55;436.83;;;144.23;;
355;SDS011;62514;48.112;11.566;2023-10-13T12:01:26;423.37;;;133.23;;
355;SDS011;62514;48.112;11.566;2023-10-13T12:04:11;421.60;;;136.40;;
355;SDS011;62514;48.112;11.566;2023-10-13T12:06:55;420.77;;;133.30;;
355;SDS011;62514;48.112;11.566;2023-10-13T12:09:42;419.77;;;131.47;;
355;SDS011;62514;48.112;11.566;2023-10-13T12:12:18;430.03;;;138.67;;
355;SDS011;62514;48.112;11.566;2023-10-13T12:14:44;427.83;;;139.33;;
355;SDS011;62514;48.112;11.566;2023-10-13T12:17:23;418.20;;;131.20;;
355;SDS011;62514;48.112;11.566;2023-10-13T12:19:56;433.67;;;141.50;;
355;SDS011;62514;48.112;11.566;2023-10-13T12:22:23;432.43;;;142.17;;
355;SDS011;62514;48.112;11.566;2023-10-13T12:24:56;420.10;;;133.03;;
355;SDS011;62514;48.112;11.566;2023-10-13T12:27:25;427.73;;;137.50;;
355;SDS011;62514;48.112;11.566;2023-10-13T12:30:00;417.47;;;134.07;;
355;SDS011;62514;48.112;11.566;2023-10-13T12:32:32;435.50;;;143.60;;
355;SDS011;62514;48.112;11.566;2023-10-13T12:35:00;420.10;;;136.03;;
355;SDS011;62514;48.112;11.566;2023-10-13T12:37:29;419.60;;;133.23;;
355;SDS011;62514;48.112;11.566;2023-10-13T12:40:04;414.87;;;130.47;;
355;SDS011;62514;48.112;11.566;2023-10-13T12:42:49;419.63;;;131.47;;
355;SDS011;62514;48.112;11.566;2023-10-13T12:45:37;419.03;;;134.60;;
355;SDS011;62514;48.112;11.566;2023-10-13T12:48:25;419.47;;;134.40;;
355;SDS011;62514;48.112;11.566;2023-10-13T12:51:09;427.37;;;138.87;;
355;SDS011;62514;48.112;11.566;2023-10-13T12:53:53;418.13;;;130.77;;
355;SDS011;62514;48.112;11.566;2023-10-13T12:56:29;419.67;;;133.83;;
355;SDS011;62514;48.112;11.566;2023-10-13T12:58:55;423.27;;;132.63;;
355;SDS011;62514;48.112;11.566;2023-10-13T13:01:22;419.83;;;130.87;;
355;SDS011;62514;48.112;11.566;2023-10-13T13:03:50;423.93;;;135.33;;
355;SDS011;62514;48.112;11.566;2023-10-13T13:06:25;423.17;;;133.40;;
355;SDS011;62514;48.112;11.566;2023-10-13T13:08:55;423.33;;;136.93;;
355;SDS011;62514;48.112;11.566;2023-10-13T13:11:21;443.50;;;143.17;;
355;SDS011;62514;48.112;11.566;2023-10-13T13:13:48;431.20;;;137.80;;
355;SDS011;62514;48.112;11.566;2023-10-13T13:16:14;437.07;;;137.90;;
355;SDS011;62514;48.112;11.566;2023-10-13T13:18:43;433.20;;;140.73;;
355;SDS011;62514;48.112;11.566;2023-10-13T13:21:09;426.60;;;132.10;;
355;SDS011;62514;48.112;11.566;2023-10-13T13:23:37;432.90;;;133.37;;
355;SDS011;62514;48.112;11.566;2023-10-13T13:26:06;448.73;;;147.83;;
355;SDS011;62514;48.112;11.566;2023-10-13T13:28:49;454.47;;;156.97;;
355;SDS011;62514;48.112;11.566;2023-10-13T13:31:16;449.37;;;155.30;;
355;SDS011;62514;48.112;11.566;2023-10-13T13:33:50;444.03;;;139.83;;
355;SDS011;62514;48.112;11.566;2023-10-13T13:36:16;426.97;;;129.53;;
355;SDS011;62514;48.112;11.566;2023-10-13T13:38:42;429.57;;;131.63;;
355;SDS011;62514;48.112;11.566;2023-10-13T13:41:14;442.90;;;139.87;;
355;SDS011;62514;48.112;11.566;2023-10-13T13:43:50;434.00;;;133.90;;
355;SDS011;62514;48.112;11.566;2023-10-13T13:46:22;429.07;;;130.93;;
355;SDS011;62514;48.112;11.566;2023-10-13T13:48:58;433.43;;;135.97;;
355;SDS011;62514;48.112;11.566;2023-10-13T13:51:29;438.00;;;139.77;;
355;SDS011;62514;48.112;11.566;2023-10-13T13:53:57;431.80;;;132.63;;
355;SDS011;62514;48.112;11.566;2023-10-13T13:56:23;436.37;;;134.97;;
355;SDS011;62514;48.112;11.566;2023-10-13T13:58:51;441.03;;;145.27;;
355;SDS011;62514;48.112;11.566;2023-10-13T14:01:18;450.30;;;147.03;;
355;SDS011;62514;48.112;11.566;2023-10-13T14:03:45;437.80;;;138.87;;
355;SDS011;62514;48.112;11.566;2023-10-13T14:06:12;436.10;;;135.10;;
355;SDS011;62514;48.112;11.566;2023-10-13T14:08:43;430.70;;;132.47;;
355;SDS011;62514;48.112;11.566;2023-10-13T14:11:10;434.37;;;142.00;;
355;SDS011;62514;48.112;11.566;2023-10-13T14:13:39;432.70;;;141.57;;
355;SDS011;62514;48.112;11.566;2023-10-13T14:16:19;423.93;;;127.93;;
355;SDS011;62514;48.112;11.566;2023-10-13T14:18:50;443.57;;;144.43;;
355;SDS011;62514;48.112;11.566;2023-10-13T14:21:17;436.47;;;146.40;;
355;SDS011;62514;48.112;11.566;2023-10-13T14:23:50;429.73;;;132.57;;
355;SDS011;62514;48.112;11.566;2023-10-13T14:26:19;428.13;;;130.43;;
355;SDS011;62514;48.112;11.566;2023-10-13T14:28:50;428.07;;;131.10;;
355;SDS011;62514;48.112;11.566;2023-10-13T14:31:39;437.27;;;131.37;;
355;SDS011;62514;48.112;11.566;2023-10-13T14:34:05;438.97;;;131.80;;
355;SDS011;62514;48.112;11.566;2023-10-13T14:36:33;445.07;;;133.33;;
355;SDS011;62514;48.112;11.566;2023-10-13T14:39:00;450.40;;;135.20;;
355;SDS011;62514;48.112;11.566;2023-10-13T14:41:26;456.77;;;153.43;;
355;SDS011;62514;48.112;11.566;2023-10-13T14:43:52;452.63;;;131.93;;
355;SDS011;62514;48.112;11.566;2023-10-13T14:46:21;446.40;;;132.10;;
355;SDS011;62514;48.112;11.566;2023-10-13T14:48:54;447.80;;;128.90;;
355;SDS011;62514;48.112;11.566;2023-10-13T14:51:19;439.30;;;125.43;;
355;SDS011;62514;48.112;11.566;2023-10-13T14:53:46;452.13;;;131.70;;
355;SDS011;62514;48.112;11.566;2023-10-13T14:56:13;445.80;;;129.53;;
355;SDS011;62514;48.112;11.566;2023-10-13T14:58:40;454.40;;;134.83;;
355;SDS011;62514;48.112;11.566;2023-10-13T15:01:13;458.60;;;134.13;;
355;SDS011;62514;48.112;11.566;2023-10-13T15:03:42;450.50;;;128.67;;
355;SDS011;62514;48.112;11.566;2023-10-13T15:06:18;460.67;;;133.03;;
355;SDS011;62514;48.112;11.566;2023-10-13T15:08:49;454.00;;;130.40;;
355;SDS011;62514;48.112;11.566;2023-10-13T15:11:14;452.63;;;130.13;;
355;SDS011;62514;48.112;11.566;2023-10-13T15:13:43;449.63;;;127.77;;
355;SDS011;62514;48.112;11.566;2023-10-13T15:16:18;458.83;;;135.13;;
355;SDS011;62514;48.112;11.566;2023-10-13T15:18:46;451.87;;;137.53;;